KRRL

Merrill Municipal Airport

Merrill, Wisconsin, USA
METAR KRRL 180215Z AUTO 36004KT 10SM CLR 20/18 A3008 RMK AO2 T01970181 TSNO
Observed Flight Rules
Aug-18 @ 02:15 UTC (13 minutes ago) Visual Flight Rules
Wind Visibility Clouds
360° at 4 knots 10 miles
  • Clear skies
Temperatures Readings
Current 20°C / 68°F
Dewpoint 18°C / 64°F
Humidity 88%
Altimeter 30.08" Hg
Pressure 1019 hPa
Elevation 401
METAR KRRL 180215Z AUTO 36004KT 10SM CLR 20/18 A3008 RMK AO2 T01970181 TSNO
Observed Flight Rules
Aug-18 @ 02:15 UTC
(13 minutes ago)
VFR
Wind Visibility
360° at 4 knots 10 miles
Clouds
  • Clear skies
Temperature Dewpoint
20°C / 68°F 18°C / 64°F
Humidity Altimeter Pressure
88% 30.08" Hg 1019 hPa